createdAt,value
2018-11-06T00:01:07.704Z,99.90
2018-11-06T00:03:40.208Z,99.90
2018-11-06T00:06:06.863Z,99.90
2018-11-06T00:08:33.517Z,99.90
2018-11-06T00:11:00.168Z,99.90
2018-11-06T00:13:26.812Z,99.90
2018-11-06T00:15:53.473Z,99.90
2018-11-06T00:18:20.109Z,99.90
2018-11-06T00:20:46.796Z,99.90
2018-11-06T00:23:13.444Z,99.90
2018-11-06T00:25:40.106Z,99.90
2018-11-06T00:28:06.744Z,99.90
2018-11-06T00:30:33.408Z,99.90
2018-11-06T00:33:00.048Z,99.90
2018-11-06T00:35:26.700Z,99.90
2018-11-06T00:37:53.353Z,99.90
2018-11-06T00:40:20.018Z,99.90
2018-11-06T00:42:46.669Z,99.90
2018-11-06T00:45:15.336Z,99.90
2018-11-06T00:47:41.968Z,99.90
2018-11-06T00:50:09.246Z,99.90
2018-11-06T00:52:36.075Z,99.90
2018-11-06T00:55:02.737Z,99.90
2018-11-06T00:57:29.384Z,99.90
2018-11-06T00:59:56.032Z,99.90
2018-11-06T01:02:22.956Z,99.90
2018-11-06T01:04:50.700Z,99.90
2018-11-06T01:07:17.349Z,99.90
2018-11-06T01:09:44.013Z,99.90
2018-11-06T01:12:10.660Z,99.90
2018-11-06T01:14:37.316Z,99.90
2018-11-06T01:17:04.167Z,99.90
2018-11-06T01:19:30.813Z,99.90
2018-11-06T01:21:57.456Z,99.90
2018-11-06T01:24:24.116Z,99.90
2018-11-06T01:26:50.768Z,99.90
2018-11-06T01:29:17.419Z,99.90
2018-11-06T01:31:44.069Z,99.90
2018-11-06T01:34:10.713Z,99.90
2018-11-06T01:36:37.364Z,99.90
2018-11-06T01:39:05.079Z,99.90
2018-11-06T01:41:31.729Z,99.90
2018-11-06T01:43:58.372Z,99.90
2018-11-06T01:46:25.021Z,99.90
2018-11-06T01:48:51.655Z,99.90
2018-11-06T01:51:18.308Z,99.90
2018-11-06T01:53:44.948Z,99.90
2018-11-06T01:56:11.608Z,99.90
2018-11-06T01:58:38.248Z,99.90
2018-11-06T02:01:04.884Z,99.90
2018-11-06T02:03:31.855Z,99.90
2018-11-06T02:05:58.525Z,99.90
2018-11-06T02:08:25.559Z,99.90
2018-11-06T02:10:52.249Z,99.90
2018-11-06T02:13:18.892Z,99.90
2018-11-06T02:15:45.562Z,99.90
2018-11-06T02:18:12.196Z,99.90
2018-11-06T02:20:38.839Z,99.90
2018-11-06T02:23:05.471Z,99.90
2018-11-06T02:25:32.132Z,99.90
2018-11-06T02:27:58.778Z,99.90
2018-11-06T02:30:25.420Z,99.90
2018-11-06T02:32:52.065Z,99.90
2018-11-06T02:35:18.736Z,99.90
2018-11-06T02:37:45.378Z,99.90
2018-11-06T02:40:13.135Z,99.90
2018-11-06T02:42:40.180Z,99.90
2018-11-06T02:45:07.334Z,99.90
2018-11-06T02:47:33.973Z,99.90
2018-11-06T02:50:00.621Z,99.90
2018-11-06T02:52:27.264Z,99.90
2018-11-06T02:54:53.909Z,99.90
2018-11-06T02:57:20.558Z,99.90
2018-11-06T02:59:47.223Z,99.90
2018-11-06T03:02:13.889Z,99.90
2018-11-06T03:04:40.525Z,99.90
2018-11-06T03:07:07.180Z,99.90
2018-11-06T03:09:33.808Z,99.90
2018-11-06T03:12:00.465Z,99.90
2018-11-06T03:14:27.112Z,99.90
2018-11-06T03:16:53.765Z,99.90
2018-11-06T03:19:20.424Z,99.90
2018-11-06T03:21:47.097Z,99.90
2018-11-06T03:24:13.748Z,99.90
2018-11-06T03:26:40.400Z,99.90
2018-11-06T03:29:07.044Z,99.90
2018-11-06T03:31:33.694Z,99.90
2018-11-06T03:34:00.348Z,99.90
2018-11-06T03:36:27.013Z,99.90
2018-11-06T03:38:53.704Z,99.90
2018-11-06T03:41:20.365Z,99.90
2018-11-06T03:43:47.059Z,99.90
2018-11-06T03:46:13.701Z,99.90
2018-11-06T03:48:40.332Z,99.90
2018-11-06T03:51:07.138Z,99.90
2018-11-06T03:53:33.784Z,99.90
2018-11-06T03:56:00.428Z,99.90
2018-11-06T03:58:27.056Z,99.90
2018-11-06T04:00:53.684Z,99.90
2018-11-06T04:03:20.328Z,99.90
2018-11-06T04:05:46.961Z,99.90
2018-11-06T04:08:13.616Z,99.90
2018-11-06T04:10:40.252Z,99.90
2018-11-06T04:13:06.900Z,99.90
2018-11-06T04:15:33.560Z,99.90
2018-11-06T04:18:00.196Z,99.90
2018-11-06T04:20:26.838Z,99.90
2018-11-06T04:22:53.489Z,99.90
2018-11-06T04:25:20.119Z,99.90
2018-11-06T04:27:46.764Z,99.90
2018-11-06T04:30:14.153Z,99.90
2018-11-06T04:32:41.624Z,99.90
2018-11-06T04:35:08.767Z,99.90
2018-11-06T04:37:35.525Z,99.90
2018-11-06T04:40:02.181Z,99.90
2018-11-06T04:42:28.824Z,99.90
2018-11-06T04:44:55.469Z,99.90
2018-11-06T04:47:22.117Z,99.90
2018-11-06T04:49:48.763Z,99.90
2018-11-06T04:52:15.408Z,99.90
2018-11-06T04:54:42.048Z,99.90
2018-11-06T04:57:08.691Z,99.90
2018-11-06T04:59:35.328Z,99.90
2018-11-06T05:02:02.039Z,99.90
2018-11-06T05:04:28.641Z,99.90
2018-11-06T05:06:55.433Z,99.90
2018-11-06T05:09:21.988Z,99.90
2018-11-06T05:11:48.639Z,99.90
2018-11-06T05:14:15.358Z,99.90
2018-11-06T05:16:41.952Z,99.90
2018-11-06T05:19:08.592Z,99.90
2018-11-06T05:21:35.236Z,99.90
2018-11-06T05:24:01.885Z,99.90
2018-11-06T05:26:28.534Z,99.90
2018-11-06T05:28:55.183Z,99.90
2018-11-06T05:31:21.827Z,99.90
2018-11-06T05:33:48.493Z,99.90
2018-11-06T05:36:15.131Z,99.90
2018-11-06T05:38:41.785Z,99.90
2018-11-06T05:41:09.473Z,99.90
2018-11-06T05:43:37.061Z,99.90
2018-11-06T05:46:03.773Z,99.90
2018-11-06T05:48:30.428Z,99.90
2018-11-06T05:50:57.068Z,99.90
2018-11-06T05:53:23.788Z,99.90
2018-11-06T05:55:50.364Z,99.90
2018-11-06T05:58:17.142Z,99.90
2018-11-06T06:00:43.788Z,99.90
2018-11-06T06:03:10.424Z,99.90
2018-11-06T06:05:37.065Z,99.90
2018-11-06T06:08:04.484Z,99.90
2018-11-06T06:10:31.156Z,99.90
2018-11-06T06:12:57.810Z,99.90
2018-11-06T06:15:24.460Z,99.90
2018-11-06T06:17:51.303Z,99.90
2018-11-06T06:20:17.932Z,99.90
2018-11-06T06:22:44.875Z,99.90
2018-11-06T06:25:11.514Z,99.90
2018-11-06T06:27:38.151Z,99.90
2018-11-06T06:30:06.061Z,99.90
2018-11-06T06:32:32.713Z,99.90
2018-11-06T06:34:59.414Z,99.90
2018-11-06T06:37:26.084Z,99.90
2018-11-06T06:39:52.722Z,99.90
2018-11-06T06:42:19.364Z,99.90
2018-11-06T06:44:46.013Z,99.90
2018-11-06T06:47:12.660Z,99.90
2018-11-06T06:49:39.340Z,99.90
2018-11-06T06:52:06.005Z,99.90
2018-11-06T06:54:32.940Z,99.90
2018-11-06T06:56:59.310Z,99.90
2018-11-06T06:59:25.980Z,99.90
2018-11-06T07:01:52.616Z,99.90
2018-11-06T07:04:19.276Z,99.90
2018-11-06T07:09:18.538Z,99.90
2018-11-06T07:11:45.457Z,99.90
2018-11-06T07:14:12.109Z,99.90
2018-11-06T07:16:38.759Z,99.90
2018-11-06T07:19:05.417Z,99.90
2018-11-06T07:21:32.224Z,99.90
2018-11-06T07:23:58.871Z,99.90
2018-11-06T07:26:25.513Z,99.90
2018-11-06T07:28:52.205Z,99.90
2018-11-06T07:31:18.809Z,99.90
2018-11-06T07:33:45.453Z,99.90
2018-11-06T07:36:12.097Z,99.90
2018-11-06T07:38:38.753Z,99.90
2018-11-06T07:41:05.455Z,99.90
2018-11-06T07:43:32.060Z,99.90
2018-11-06T07:45:59.470Z,99.90
2018-11-06T07:48:26.136Z,99.90
2018-11-06T07:50:52.781Z,99.90
2018-11-06T07:53:19.607Z,99.90
2018-11-06T07:55:46.348Z,99.90
2018-11-06T07:58:12.906Z,99.90
2018-11-06T08:00:39.544Z,99.90
2018-11-06T08:03:06.197Z,99.90
2018-11-06T08:05:32.844Z,99.90
2018-11-06T08:07:59.503Z,99.90
2018-11-06T08:10:26.171Z,99.90
2018-11-06T08:12:53.886Z,99.90
2018-11-06T08:15:20.768Z,99.90
2018-11-06T08:17:47.496Z,99.90
2018-11-06T08:20:14.312Z,99.90
2018-11-06T08:22:40.944Z,99.90
2018-11-06T08:25:09.188Z,99.90
2018-11-06T08:27:36.113Z,99.90
2018-11-06T08:30:02.872Z,99.90
2018-11-06T08:32:30.103Z,99.90
2018-11-06T08:34:56.234Z,99.90
2018-11-06T08:37:22.893Z,99.90
2018-11-06T08:39:49.551Z,99.90
2018-11-06T08:42:16.362Z,99.90
2018-11-06T08:44:42.989Z,99.90
2018-11-06T08:47:15.406Z,99.90
2018-11-06T08:49:42.836Z,99.90
2018-11-06T08:52:09.481Z,98.10
2018-11-06T08:54:36.183Z,96.30
2018-11-06T08:57:02.824Z,95.00
2018-11-06T08:59:29.476Z,93.80
2018-11-06T09:01:56.111Z,92.70
2018-11-06T09:04:22.769Z,91.10
2018-11-06T09:06:49.405Z,89.40
2018-11-06T09:09:16.052Z,88.00
2018-11-06T09:11:42.700Z,87.40
2018-11-06T09:14:09.341Z,89.30
2018-11-06T09:16:36.152Z,86.60
2018-11-06T09:19:02.808Z,84.30
2018-11-06T09:21:29.449Z,85.10
2018-11-06T09:23:56.106Z,83.80
2018-11-06T09:26:22.749Z,81.30
2018-11-06T09:28:49.393Z,78.20
2018-11-06T09:31:16.045Z,77.50
2018-11-06T09:33:42.740Z,75.50
2018-11-06T09:36:09.389Z,74.60
2018-11-06T09:38:37.260Z,73.60
2018-11-06T09:41:03.937Z,72.80
2018-11-06T09:43:30.590Z,71.80
2018-11-06T09:45:57.278Z,72.10
2018-11-06T09:48:23.929Z,70.10
2018-11-06T09:50:50.601Z,68.20
2018-11-06T09:53:17.710Z,66.30
2018-11-06T09:55:44.801Z,66.30
2018-11-06T09:58:11.885Z,65.20
2018-11-06T10:00:38.982Z,64.80
2018-11-06T10:03:06.090Z,64.30
2018-11-06T10:05:33.193Z,63.60
2018-11-06T10:08:00.293Z,64.30
2018-11-06T10:10:27.400Z,63.20
2018-11-06T10:12:54.504Z,61.70
2018-11-06T10:15:21.601Z,62.40
2018-11-06T10:17:49.541Z,63.70
2018-11-06T10:20:17.629Z,63.30
2018-11-06T10:22:44.729Z,63.80
2018-11-06T10:25:12.893Z,63.10
2018-11-06T10:27:40.450Z,62.80
2018-11-06T10:30:08.180Z,63.50
2018-11-06T10:32:34.884Z,64.90
2018-11-06T10:35:01.533Z,66.30
2018-11-06T10:37:28.212Z,68.70
2018-11-06T10:39:54.844Z,72.30
2018-11-06T10:42:21.528Z,76.80
2018-11-06T10:44:48.193Z,80.90
2018-11-06T10:47:14.924Z,84.90
2018-11-06T10:49:41.564Z,88.90
2018-11-06T10:52:08.232Z,90.00
2018-11-06T10:54:34.884Z,90.20
2018-11-06T10:57:01.708Z,89.30
2018-11-06T10:59:28.369Z,86.30
2018-11-06T11:02:00.780Z,84.00
2018-11-06T11:04:28.369Z,80.20
2018-11-06T11:06:55.064Z,75.50
2018-11-06T11:09:21.720Z,72.00
2018-11-06T11:11:48.415Z,69.30
2018-11-06T11:14:15.052Z,68.60
2018-11-06T11:16:41.746Z,64.50
2018-11-06T11:19:08.369Z,64.30
2018-11-06T11:21:35.046Z,63.50
2018-11-06T11:24:01.680Z,62.80
2018-11-06T11:26:28.351Z,62.00
2018-11-06T11:28:54.988Z,59.90
2018-11-06T11:31:21.653Z,58.40
2018-11-06T11:33:48.363Z,57.30
2018-11-06T11:36:14.977Z,55.00
2018-11-06T11:41:08.364Z,54.10
2018-11-06T11:43:35.216Z,54.60
2018-11-06T11:46:01.990Z,54.30
2018-11-06T11:48:28.538Z,52.50
2018-11-06T11:50:56.224Z,52.90
2018-11-06T11:53:22.900Z,53.20
2018-11-06T11:55:49.592Z,52.70
2018-11-06T11:58:16.263Z,53.30
2018-11-06T12:00:42.913Z,54.80
2018-11-06T12:03:09.585Z,54.60
2018-11-06T12:05:36.231Z,54.30
2018-11-06T12:08:02.940Z,54.70
2018-11-06T12:10:29.600Z,55.50
2018-11-06T12:12:56.270Z,56.80
2018-11-06T12:15:22.929Z,56.20
2018-11-06T12:17:49.600Z,56.50
2018-11-06T12:20:16.692Z,56.70
2018-11-06T12:22:43.359Z,56.50
2018-11-06T12:25:10.506Z,56.50
2018-11-06T12:27:37.376Z,55.90
2018-11-06T12:30:05.117Z,55.70
2018-11-06T12:32:31.854Z,54.10
2018-11-06T12:34:58.454Z,52.00
2018-11-06T12:37:25.106Z,51.70
2018-11-06T12:39:51.841Z,51.80
2018-11-06T12:42:18.552Z,52.90
2018-11-06T12:44:45.220Z,51.90
2018-11-06T12:47:11.877Z,51.50
2018-11-06T12:49:38.542Z,49.90
2018-11-06T12:52:05.186Z,49.40
2018-11-06T12:54:31.886Z,49.20
2018-11-06T12:56:58.561Z,49.20
2018-11-06T12:59:25.208Z,49.50
2018-11-06T13:01:51.876Z,49.30
2018-11-06T13:04:18.533Z,50.30
2018-11-06T13:06:45.200Z,52.10
2018-11-06T13:09:12.025Z,53.40
2018-11-06T13:11:38.908Z,53.40
2018-11-06T13:14:05.728Z,52.40
2018-11-06T13:16:32.393Z,53.40
2018-11-06T13:18:59.036Z,54.30
2018-11-06T13:21:25.704Z,54.30
2018-11-06T13:23:52.354Z,54.60
2018-11-06T13:26:19.152Z,55.30
2018-11-06T13:28:45.696Z,55.00
2018-11-06T13:31:12.392Z,56.80
2018-11-06T13:33:39.029Z,56.90
2018-11-06T13:36:06.011Z,56.60
2018-11-06T13:38:32.721Z,57.60
2018-11-06T13:40:59.377Z,58.90
2018-11-06T13:43:26.166Z,58.50
2018-11-06T13:45:52.934Z,60.40
2018-11-06T13:48:19.485Z,62.70
2018-11-06T13:50:46.132Z,64.40
2018-11-06T13:53:12.817Z,67.90
2018-11-06T13:55:39.468Z,71.40
2018-11-06T13:58:06.144Z,73.60
2018-11-06T14:00:32.800Z,77.90
2018-11-06T14:02:59.477Z,81.20
2018-11-06T14:05:26.124Z,84.50
2018-11-06T14:07:52.817Z,88.80
2018-11-06T14:10:20.162Z,90.50
2018-11-06T14:12:46.947Z,91.50
2018-11-06T14:15:13.601Z,92.50
2018-11-06T14:17:40.272Z,93.20
2018-11-06T14:20:07.884Z,93.90
2018-11-06T14:22:34.696Z,94.90
2018-11-06T14:25:01.349Z,95.80
2018-11-06T14:27:28.078Z,96.40
2018-11-06T14:29:54.725Z,97.30
2018-11-06T14:32:21.383Z,97.80
2018-11-06T14:34:48.269Z,98.70
2018-11-06T14:37:15.060Z,99.70
2018-11-06T14:39:41.702Z,99.90
2018-11-06T14:42:08.389Z,99.90
2018-11-06T14:44:35.657Z,99.90
2018-11-06T14:47:02.431Z,99.90
2018-11-06T14:49:29.094Z,99.90
2018-11-06T14:51:55.726Z,99.90
2018-11-06T14:54:22.396Z,99.90
2018-11-06T14:56:49.045Z,99.90
2018-11-06T14:59:15.966Z,99.90
2018-11-06T15:01:42.665Z,99.90
2018-11-06T15:04:09.324Z,99.90
2018-11-06T15:06:35.961Z,99.90
2018-11-06T15:09:03.488Z,99.90
2018-11-06T15:11:30.132Z,99.90
2018-11-06T15:13:56.794Z,99.90
2018-11-06T15:16:23.444Z,99.90
2018-11-06T15:18:50.132Z,99.90
2018-11-06T15:21:16.780Z,99.90
2018-11-06T15:23:43.533Z,99.90
2018-11-06T15:26:10.181Z,99.90
2018-11-06T15:28:36.873Z,99.90
2018-11-06T15:31:03.514Z,99.90
2018-11-06T15:33:30.185Z,99.90
2018-11-06T15:35:56.833Z,99.90
2018-11-06T15:38:23.528Z,99.90
2018-11-06T15:40:50.249Z,99.90
2018-11-06T15:43:16.876Z,99.90
2018-11-06T15:45:43.512Z,99.90
2018-11-06T15:48:10.177Z,99.90
2018-11-06T15:50:36.838Z,99.90
2018-11-06T15:53:03.513Z,99.90
2018-11-06T15:55:30.173Z,99.90
2018-11-06T15:57:56.848Z,99.90
2018-11-06T16:00:23.545Z,99.90
2018-11-06T16:02:50.361Z,99.90
2018-11-06T16:05:17.032Z,99.90
2018-11-06T16:07:43.928Z,99.90
2018-11-06T16:10:13.452Z,99.90
2018-11-06T16:12:40.277Z,99.90
2018-11-06T16:15:07.208Z,99.90
2018-11-06T16:17:34.198Z,99.90
2018-11-06T16:20:00.873Z,99.90
2018-11-06T16:22:27.507Z,99.90
2018-11-06T16:24:54.172Z,99.90
2018-11-06T16:27:20.840Z,99.90
2018-11-06T16:29:47.621Z,99.90
2018-11-06T16:32:14.197Z,99.90
2018-11-06T16:34:40.873Z,99.90
2018-11-06T16:37:07.558Z,99.90
2018-11-06T16:39:34.241Z,99.90
2018-11-06T16:42:00.910Z,99.90
2018-11-06T16:44:27.585Z,99.90
2018-11-06T16:46:54.236Z,99.90
2018-11-06T16:49:21.001Z,99.90
2018-11-06T16:51:47.832Z,99.90
2018-11-06T16:54:14.501Z,99.90
2018-11-06T16:56:41.156Z,99.90
2018-11-06T16:59:08.769Z,99.90
2018-11-06T17:01:35.415Z,99.90
2018-11-06T17:04:02.101Z,99.90
2018-11-06T17:06:39.519Z,99.90
2018-11-06T17:09:06.817Z,99.90
2018-11-06T17:11:33.485Z,99.90
2018-11-06T17:14:00.146Z,99.90
2018-11-06T17:16:26.801Z,99.90
2018-11-06T17:18:53.458Z,99.90
2018-11-06T17:21:20.134Z,99.90
2018-11-06T17:23:46.780Z,99.90
2018-11-06T17:26:13.440Z,99.90
2018-11-06T17:28:40.090Z,99.90
2018-11-06T17:31:06.752Z,99.90
2018-11-06T17:33:33.401Z,99.90
2018-11-06T17:36:00.069Z,99.90
2018-11-06T17:38:26.737Z,99.90
2018-11-06T17:40:53.410Z,99.90
2018-11-06T17:43:20.120Z,99.90
2018-11-06T17:45:46.781Z,99.90
2018-11-06T17:48:13.465Z,99.90
2018-11-06T17:50:40.124Z,99.90
2018-11-06T17:53:06.801Z,99.90
2018-11-06T17:55:33.522Z,99.90
2018-11-06T17:58:00.146Z,99.90
2018-11-06T18:00:27.853Z,99.90
2018-11-06T18:02:54.533Z,99.90
2018-11-06T18:05:22.806Z,99.90
2018-11-06T18:07:49.496Z,99.90
2018-11-06T18:10:17.536Z,99.90
2018-11-06T18:12:44.436Z,99.90
2018-11-06T18:15:11.108Z,99.90
2018-11-06T18:17:38.383Z,99.90
2018-11-06T18:20:05.462Z,99.90
2018-11-06T18:22:32.112Z,99.90
2018-11-06T18:24:58.822Z,99.90
2018-11-06T18:27:25.501Z,99.90
2018-11-06T18:29:52.536Z,99.90
2018-11-06T18:32:19.332Z,99.90
2018-11-06T18:34:45.964Z,99.90
2018-11-06T18:37:12.614Z,99.90
2018-11-06T18:39:39.308Z,99.90
2018-11-06T18:42:05.976Z,99.90
2018-11-06T18:44:32.640Z,99.90
2018-11-06T18:46:59.325Z,99.90
2018-11-06T18:49:26.009Z,99.90
2018-11-06T18:51:53.769Z,99.90
2018-11-06T18:54:20.425Z,99.90
2018-11-06T18:56:47.120Z,99.90
2018-11-06T18:59:13.801Z,99.90
2018-11-06T19:01:40.503Z,99.90
2018-11-06T19:04:07.176Z,99.90
2018-11-06T19:06:34.013Z,99.90
2018-11-06T19:09:00.677Z,99.90
2018-11-06T19:11:27.356Z,99.90
2018-11-06T19:13:54.012Z,99.90
2018-11-06T19:16:20.737Z,99.90
2018-11-06T19:18:47.397Z,99.90
2018-11-06T19:21:14.092Z,99.90
2018-11-06T19:23:40.765Z,99.90
2018-11-06T19:26:07.470Z,99.90
2018-11-06T19:28:34.157Z,99.90
2018-11-06T19:31:00.856Z,99.90
2018-11-06T19:33:27.525Z,99.90
2018-11-06T19:35:54.198Z,99.90
2018-11-06T19:38:21.034Z,99.90
2018-11-06T19:40:47.730Z,99.90
2018-11-06T19:43:14.400Z,99.90
2018-11-06T19:45:41.104Z,99.90
2018-11-06T19:48:07.800Z,99.90
2018-11-06T19:50:34.485Z,99.90
2018-11-06T19:53:01.164Z,99.90
2018-11-06T19:55:27.861Z,99.90
2018-11-06T19:57:54.499Z,99.90
2018-11-06T20:00:22.283Z,99.90
2018-11-06T20:02:49.919Z,99.90
2018-11-06T20:05:16.643Z,99.90
2018-11-06T20:07:43.943Z,99.90
2018-11-06T20:10:14.043Z,99.90
2018-11-06T20:12:41.898Z,99.90
2018-11-06T20:15:09.700Z,99.90
2018-11-06T20:17:36.757Z,99.90
2018-11-06T20:20:03.605Z,99.90
2018-11-06T20:22:30.344Z,99.90
2018-11-06T20:24:56.998Z,99.90
2018-11-06T20:27:23.737Z,99.90
2018-11-06T20:32:22.809Z,99.90
2018-11-06T20:34:49.458Z,99.90
2018-11-06T20:37:16.188Z,99.90
2018-11-06T20:39:42.856Z,99.90
2018-11-06T20:42:09.543Z,99.90
2018-11-06T20:44:36.177Z,99.90
2018-11-06T20:47:02.909Z,99.90
2018-11-06T20:49:29.576Z,99.90
2018-11-06T20:51:56.256Z,99.90
2018-11-06T20:54:22.928Z,99.90
2018-11-06T20:56:49.618Z,99.90
2018-11-06T20:59:16.300Z,99.90
2018-11-06T21:01:42.989Z,99.90
2018-11-06T21:04:09.626Z,99.90
2018-11-06T21:06:36.318Z,99.90
2018-11-06T21:09:04.324Z,99.90
2018-11-06T21:11:31.050Z,99.90
2018-11-06T21:13:57.665Z,99.90
2018-11-06T21:16:24.348Z,99.90
2018-11-06T21:18:51.001Z,99.90
2018-11-06T21:21:18.697Z,99.90
2018-11-06T21:23:45.339Z,99.90
2018-11-06T21:26:12.102Z,99.90
2018-11-06T21:28:38.704Z,99.90
2018-11-06T21:31:05.370Z,99.90
2018-11-06T21:33:32.047Z,99.90
2018-11-06T21:35:58.698Z,99.90
2018-11-06T21:38:25.368Z,99.90
2018-11-06T21:40:52.017Z,99.90
2018-11-06T21:43:18.696Z,99.90
2018-11-06T21:45:45.349Z,99.90
2018-11-06T21:48:12.020Z,99.90
2018-11-06T21:50:38.659Z,99.90
2018-11-06T21:53:05.369Z,99.90
2018-11-06T21:55:32.008Z,99.90
2018-11-06T21:57:58.680Z,99.90
2018-11-06T22:00:25.433Z,99.90
2018-11-06T22:02:52.065Z,99.90
2018-11-06T22:05:19.815Z,99.90
2018-11-06T22:07:46.684Z,99.90
2018-11-06T22:10:14.637Z,99.90
2018-11-06T22:12:42.152Z,99.90
2018-11-06T22:15:10.177Z,99.90
2018-11-06T22:17:37.124Z,99.90
2018-11-06T22:20:04.292Z,99.90
2018-11-06T22:22:30.991Z,99.90
2018-11-06T22:24:57.635Z,99.90
2018-11-06T22:27:24.348Z,99.90
2018-11-06T22:29:50.984Z,99.90
2018-11-06T22:32:17.722Z,99.90
2018-11-06T22:34:44.316Z,99.90
2018-11-06T22:37:11.386Z,99.90
2018-11-06T22:39:39.075Z,99.90
2018-11-06T22:42:05.713Z,99.90
2018-11-06T22:44:32.360Z,99.90
2018-11-06T22:46:59.007Z,99.90
2018-11-06T22:49:25.670Z,99.90
2018-11-06T22:51:52.313Z,99.90
2018-11-06T22:54:19.000Z,99.90
2018-11-06T22:56:45.671Z,99.90
2018-11-06T22:59:12.310Z,99.90
2018-11-06T23:01:38.968Z,99.90
2018-11-06T23:04:06.728Z,99.90
2018-11-06T23:06:33.463Z,99.90
2018-11-06T23:09:00.118Z,99.90
2018-11-06T23:11:26.763Z,99.90
2018-11-06T23:13:57.397Z,99.90
2018-11-06T23:16:24.051Z,99.90
2018-11-06T23:18:50.690Z,99.90
2018-11-06T23:21:17.332Z,99.90
2018-11-06T23:23:43.976Z,99.90
2018-11-06T23:26:10.633Z,99.90
2018-11-06T23:28:37.280Z,99.90
2018-11-06T23:31:03.936Z,99.90
2018-11-06T23:33:30.568Z,99.90
2018-11-06T23:35:57.216Z,99.90
2018-11-06T23:38:23.859Z,99.90
2018-11-06T23:40:50.528Z,99.90
2018-11-06T23:43:17.469Z,99.90
2018-11-06T23:45:44.123Z,99.90
2018-11-06T23:48:10.769Z,99.90
2018-11-06T23:50:37.433Z,99.90
2018-11-06T23:53:04.236Z,99.90
2018-11-06T23:55:30.905Z,99.90
2018-11-06T23:57:57.564Z,99.90
